sensor_id;sensor_type;location;lat;lon;timestamp;pressure;altitude;pressure_sealevel;temperature;humidity
80945;BME280;70400;50.934;11.590;2023-06-26T00:00:48;100049.25;;;19.82;64.27
80945;BME280;70400;50.934;11.590;2023-06-26T00:01:39;100052.56;;;19.84;63.58
80945;BME280;70400;50.934;11.590;2023-06-26T00:02:31;100047.66;;;19.87;64.28
80945;BME280;70400;50.934;11.590;2023-06-26T00:03:24;100052.16;;;19.87;64.51
80945;BME280;70400;50.934;11.590;2023-06-26T00:04:14;100055.03;;;19.85;64.55
80945;BME280;70400;50.934;11.590;2023-06-26T00:05:05;100051.53;;;19.85;63.73
80945;BME280;70400;50.934;11.590;2023-06-26T00:05:57;100052.78;;;19.89;63.90
80945;BME280;70400;50.934;11.590;2023-06-26T00:06:51;100050.50;;;19.86;64.60
80945;BME280;70400;50.934;11.590;2023-06-26T00:07:42;100048.44;;;19.81;63.52
80945;BME280;70400;50.934;11.590;2023-06-26T00:08:33;100053.59;;;19.83;64.16
80945;BME280;70400;50.934;11.590;2023-06-26T00:09:24;100054.38;;;19.77;64.61
80945;BME280;70400;50.934;11.590;2023-06-26T00:10:14;100049.66;;;19.79;63.79
80945;BME280;70400;50.934;11.590;2023-06-26T00:11:05;100048.63;;;19.73;64.89
80945;BME280;70400;50.934;11.590;2023-06-26T00:11:56;100048.81;;;19.71;64.91
80945;BME280;70400;50.934;11.590;2023-06-26T00:12:47;100044.03;;;19.60;65.48
80945;BME280;70400;50.934;11.590;2023-06-26T00:13:38;100045.25;;;19.58;65.19
80945;BME280;70400;50.934;11.590;2023-06-26T00:14:29;100045.66;;;19.55;65.46
80945;BME280;70400;50.934;11.590;2023-06-26T00:15:20;100048.31;;;19.55;65.11
80945;BME280;70400;50.934;11.590;2023-06-26T00:16:10;100054.94;;;19.65;64.86
80945;BME280;70400;50.934;11.590;2023-06-26T00:17:01;100052.06;;;19.60;65.32
80945;BME280;70400;50.934;11.590;2023-06-26T00:17:51;100047.97;;;19.64;65.08
80945;BME280;70400;50.934;11.590;2023-06-26T00:18:42;100046.75;;;19.67;64.83
80945;BME280;70400;50.934;11.590;2023-06-26T00:19:33;100045.53;;;19.69;64.75
80945;BME280;70400;50.934;11.590;2023-06-26T00:20:24;100048.81;;;19.71;64.74
80945;BME280;70400;50.934;11.590;2023-06-26T00:21:15;100051.50;;;19.71;64.75
80945;BME280;70400;50.934;11.590;2023-06-26T00:22:09;100044.53;;;19.77;64.52
80945;BME280;70400;50.934;11.590;2023-06-26T00:23:00;100045.13;;;19.72;64.75
80945;BME280;70400;50.934;11.590;2023-06-26T00:23:51;100048.34;;;19.61;64.63
80945;BME280;70400;50.934;11.590;2023-06-26T00:24:42;100043.38;;;19.58;65.42
80945;BME280;70400;50.934;11.590;2023-06-26T00:25:35;100037.41;;;19.56;64.54
80945;BME280;70400;50.934;11.590;2023-06-26T00:26:26;100039.69;;;19.52;64.56
80945;BME280;70400;50.934;11.590;2023-06-26T00:27:17;100039.69;;;19.52;65.45
80945;BME280;70400;50.934;11.590;2023-06-26T00:28:08;100040.50;;;19.53;65.19
80945;BME280;70400;50.934;11.590;2023-06-26T00:29:01;100039.25;;;19.49;65.89
80945;BME280;70400;50.934;11.590;2023-06-26T00:29:52;100035.28;;;19.32;66.48
80945;BME280;70400;50.934;11.590;2023-06-26T00:30:43;100033.78;;;19.22;66.68
80945;BME280;70400;50.934;11.590;2023-06-26T00:31:34;100044.94;;;19.26;66.26
80945;BME280;70400;50.934;11.590;2023-06-26T00:32:26;100037.97;;;19.38;65.70
80945;BME280;70400;50.934;11.590;2023-06-26T00:33:17;100035.28;;;19.32;66.20
80945;BME280;70400;50.934;11.590;2023-06-26T00:34:08;100035.47;;;19.30;66.16
80945;BME280;70400;50.934;11.590;2023-06-26T00:34:59;100043.31;;;19.38;65.94
80945;BME280;70400;50.934;11.590;2023-06-26T00:35:49;100040.63;;;19.38;65.74
80945;BME280;70400;50.934;11.590;2023-06-26T00:36:40;100039.41;;;19.34;66.47
80945;BME280;70400;50.934;11.590;2023-06-26T00:37:33;100037.31;;;19.29;66.13
80945;BME280;70400;50.934;11.590;2023-06-26T00:38:24;100042.84;;;19.28;65.72
80945;BME280;70400;50.934;11.590;2023-06-26T00:39:15;100039.34;;;19.27;66.32
80945;BME280;70400;50.934;11.590;2023-06-26T00:40:06;100038.97;;;19.30;65.61
80945;BME280;70400;50.934;11.590;2023-06-26T00:40:57;100043.72;;;19.35;65.39
80945;BME280;70400;50.934;11.590;2023-06-26T00:41:48;100046.59;;;19.34;66.30
80945;BME280;70400;50.934;11.590;2023-06-26T00:42:39;100040.84;;;19.37;66.10
80945;BME280;70400;50.934;11.590;2023-06-26T00:43:30;100040.84;;;19.37;65.91
80945;BME280;70400;50.934;11.590;2023-06-26T00:44:21;100038.34;;;19.28;66.24
80945;BME280;70400;50.934;11.590;2023-06-26T00:45:12;100030.56;;;19.34;66.02
80945;BME280;70400;50.934;11.590;2023-06-26T00:46:03;100034.00;;;19.27;66.38
80945;BME280;70400;50.934;11.590;2023-06-26T00:46:54;100031.56;;;19.26;66.31
80945;BME280;70400;50.934;11.590;2023-06-26T00:47:45;100032.16;;;19.21;65.96
80945;BME280;70400;50.934;11.590;2023-06-26T00:48:37;100033.59;;;19.24;65.33
80945;BME280;70400;50.934;11.590;2023-06-26T00:49:29;100033.75;;;19.16;66.52
80945;BME280;70400;50.934;11.590;2023-06-26T00:50:20;100039.06;;;19.09;66.85
80945;BME280;70400;50.934;11.590;2023-06-26T00:51:11;100035.41;;;19.17;66.67
80945;BME280;70400;50.934;11.590;2023-06-26T00:52:02;100027.38;;;19.17;66.44
80945;BME280;70400;50.934;11.590;2023-06-26T00:52:54;100029.59;;;19.13;66.42
80945;BME280;70400;50.934;11.590;2023-06-26T00:53:53;100034.97;;;19.13;66.53
80945;BME280;70400;50.934;11.590;2023-06-26T00:54:44;100030.66;;;19.12;66.01
80945;BME280;70400;50.934;11.590;2023-06-26T00:55:35;100035.81;;;19.14;66.39
80945;BME280;70400;50.934;11.590;2023-06-26T00:56:26;100033.28;;;19.05;67.08
80945;BME280;70400;50.934;11.590;2023-06-26T00:57:18;100032.66;;;19.03;66.69
80945;BME280;70400;50.934;11.590;2023-06-26T00:58:11;100034.47;;;18.96;66.29
80945;BME280;70400;50.934;11.590;2023-06-26T00:59:04;100031.34;;;18.93;67.26
80945;BME280;70400;50.934;11.590;2023-06-26T00:59:56;100029.91;;;18.90;67.07
80945;BME280;70400;50.934;11.590;2023-06-26T01:00:47;100026.22;;;18.91;67.98
80945;BME280;70400;50.934;11.590;2023-06-26T01:01:37;100027.22;;;18.90;67.16
80945;BME280;70400;50.934;11.590;2023-06-26T01:02:28;100030.28;;;18.87;67.82
80945;BME280;70400;50.934;11.590;2023-06-26T01:03:25;100026.16;;;18.78;67.70
80945;BME280;70400;50.934;11.590;2023-06-26T01:04:19;100030.19;;;18.74;67.66
80945;BME280;70400;50.934;11.590;2023-06-26T01:05:09;100029.00;;;18.76;67.62
80945;BME280;70400;50.934;11.590;2023-06-26T01:06:03;100024.69;;;18.75;68.06
80945;BME280;70400;50.934;11.590;2023-06-26T01:06:56;100021.84;;;18.83;66.90
80945;BME280;70400;50.934;11.590;2023-06-26T01:07:48;100022.03;;;18.82;68.04
80945;BME280;70400;50.934;11.590;2023-06-26T01:08:42;100024.03;;;18.73;68.53
80945;BME280;70400;50.934;11.590;2023-06-26T01:09:34;100030.13;;;18.67;68.08
80945;BME280;70400;50.934;11.590;2023-06-26T01:10:25;100023.31;;;18.64;68.31
80945;BME280;70400;50.934;11.590;2023-06-26T01:11:20;100019.19;;;18.62;68.12
80945;BME280;70400;50.934;11.590;2023-06-26T01:12:11;100022.03;;;18.54;68.90
80945;BME280;70400;50.934;11.590;2023-06-26T01:13:02;100028.41;;;18.53;69.32
80945;BME280;70400;50.934;11.590;2023-06-26T01:13:53;100024.69;;;18.54;68.52
80945;BME280;70400;50.934;11.590;2023-06-26T01:14:46;100020.38;;;18.53;68.94
80945;BME280;70400;50.934;11.590;2023-06-26T01:15:36;100024.22;;;18.43;69.62
80945;BME280;70400;50.934;11.590;2023-06-26T01:16:28;100029.22;;;18.53;68.49
80945;BME280;70400;50.934;11.590;2023-06-26T01:17:20;100018.34;;;18.55;69.25
80945;BME280;70400;50.934;11.590;2023-06-26T01:18:11;100019.44;;;18.67;68.76
80945;BME280;70400;50.934;11.590;2023-06-26T01:19:04;100021.44;;;18.58;68.57
80945;BME280;70400;50.934;11.590;2023-06-26T01:19:59;100019.16;;;18.55;68.93
80945;BME280;70400;50.934;11.590;2023-06-26T01:20:53;100023.19;;;18.73;67.71
80945;BME280;70400;50.934;11.590;2023-06-26T01:21:46;100019.44;;;18.67;68.33
80945;BME280;70400;50.934;11.590;2023-06-26T01:23:00;100017.56;;;18.61;68.83
80945;BME280;70400;50.934;11.590;2023-06-26T01:24:12;100017.66;;;18.74;67.54
80945;BME280;70400;50.934;11.590;2023-06-26T01:26:19;100020.88;;;18.63;68.33
80945;BME280;70400;50.934;11.590;2023-06-26T01:27:11;100005.66;;;18.63;67.68
80945;BME280;70400;50.934;11.590;2023-06-26T01:28:03;100012.03;;;18.62;68.07
80945;BME280;70400;50.934;11.590;2023-06-26T01:28:56;100013.13;;;18.47;68.98
80945;BME280;70400;50.934;11.590;2023-06-26T01:29:50;100016.84;;;18.46;69.33
80945;BME280;70400;50.934;11.590;2023-06-26T01:30:44;100007.19;;;18.44;68.97
80945;BME280;70400;50.934;11.590;2023-06-26T01:31:35;100004.13;;;18.48;68.97
80945;BME280;70400;50.934;11.590;2023-06-26T01:32:28;100013.53;;;18.43;68.97
80945;BME280;70400;50.934;11.590;2023-06-26T01:33:19;100006.16;;;18.46;68.94
80945;BME280;70400;50.934;11.590;2023-06-26T01:34:18;100011.81;;;18.36;69.48
80945;BME280;70400;50.934;11.590;2023-06-26T01:35:09;100015.72;;;18.33;69.37
80945;BME280;70400;50.934;11.590;2023-06-26T01:36:01;100006.63;;;18.28;69.75
80945;BME280;70400;50.934;11.590;2023-06-26T01:36:52;100008.09;;;18.30;69.58
80945;BME280;70400;50.934;11.590;2023-06-26T01:37:43;100004.44;;;18.38;69.13
80945;BME280;70400;50.934;11.590;2023-06-26T01:38:34;100005.28;;;18.38;68.92
80945;BME280;70400;50.934;11.590;2023-06-26T01:39:25;99998.19;;;18.52;68.91
80945;BME280;70400;50.934;11.590;2023-06-26T01:40:16;100002.44;;;18.47;68.88
80945;BME280;70400;50.934;11.590;2023-06-26T01:41:08;100001.84;;;18.44;68.19
80945;BME280;70400;50.934;11.590;2023-06-26T01:42:01;100009.38;;;18.34;69.32
80945;BME280;70400;50.934;11.590;2023-06-26T01:42:53;100011.00;;;18.35;69.44
80945;BME280;70400;50.934;11.590;2023-06-26T01:44:14;100005.28;;;18.38;68.35
80945;BME280;70400;50.934;11.590;2023-06-26T01:45:29;100002.75;;;18.30;69.47
80945;BME280;70400;50.934;11.590;2023-06-26T01:46:40;100002.28;;;18.27;69.67
80945;BME280;70400;50.934;11.590;2023-06-26T01:47:35;100001.47;;;18.26;69.99
80945;BME280;70400;50.934;11.590;2023-06-26T01:48:34;100000.22;;;18.22;70.32
80945;BME280;70400;50.934;11.590;2023-06-26T01:50:46;100003.19;;;18.34;69.86
80945;BME280;70400;50.934;11.590;2023-06-26T01:51:51;99999.25;;;18.30;69.65
80945;BME280;70400;50.934;11.590;2023-06-26T01:53:07;99992.63;;;18.26;69.41
80945;BME280;70400;50.934;11.590;2023-06-26T01:54:01;99995.22;;;18.12;69.08
80945;BME280;70400;50.934;11.590;2023-06-26T01:55:05;100001.19;;;18.14;70.63
80945;BME280;70400;50.934;11.590;2023-06-26T01:56:13;99991.06;;;18.10;70.34
80945;BME280;70400;50.934;11.590;2023-06-26T01:57:08;99989.53;;;18.00;70.28
80945;BME280;70400;50.934;11.590;2023-06-26T01:57:59;99994.88;;;18.00;69.91
80945;BME280;70400;50.934;11.590;2023-06-26T01:58:51;99996.31;;;17.96;70.73
80945;BME280;70400;50.934;11.590;2023-06-26T01:59:46;99996.66;;;17.93;69.57
80945;BME280;70400;50.934;11.590;2023-06-26T02:00:38;99988.91;;;17.98;70.75
80945;BME280;70400;50.934;11.590;2023-06-26T02:01:29;99991.22;;;18.02;71.14
80945;BME280;70400;50.934;11.590;2023-06-26T02:02:25;99992.84;;;18.03;70.80
80945;BME280;70400;50.934;11.590;2023-06-26T02:03:16;99998.38;;;18.01;70.79
80945;BME280;70400;50.934;11.590;2023-06-26T02:04:07;99985.88;;;18.02;70.74
80945;BME280;70400;50.934;11.590;2023-06-26T02:04:58;99992.78;;;17.96;71.42
80945;BME280;70400;50.934;11.590;2023-06-26T02:05:50;99995.09;;;17.99;70.21
80945;BME280;70400;50.934;11.590;2023-06-26T02:06:42;99991.56;;;17.98;70.95
80945;BME280;70400;50.934;11.590;2023-06-26T02:07:32;99996.31;;;17.96;70.89
80945;BME280;70400;50.934;11.590;2023-06-26T02:08:25;99985.72;;;17.88;71.81
80945;BME280;70400;50.934;11.590;2023-06-26T02:09:19;99991.53;;;17.92;71.66
80945;BME280;70400;50.934;11.590;2023-06-26T02:10:11;99991.97;;;17.95;71.14
80945;BME280;70400;50.934;11.590;2023-06-26T02:11:01;99995.53;;;18.03;71.36
80945;BME280;70400;50.934;11.590;2023-06-26T02:11:52;99987.69;;;18.01;71.23
80945;BME280;70400;50.934;11.590;2023-06-26T02:12:43;99985.97;;;17.93;71.53
80945;BME280;70400;50.934;11.590;2023-06-26T02:13:36;99988.66;;;17.93;71.18
80945;BME280;70400;50.934;11.590;2023-06-26T02:14:27;99990.50;;;17.93;70.55
80945;BME280;70400;50.934;11.590;2023-06-26T02:15:18;99990.06;;;17.89;70.62
80945;BME280;70400;50.934;11.590;2023-06-26T02:16:09;99992.34;;;17.92;70.92
80945;BME280;70400;50.934;11.590;2023-06-26T02:17:00;99988.91;;;17.98;70.25
80945;BME280;70400;50.934;11.590;2023-06-26T02:17:51;99984.53;;;17.91;71.25
80945;BME280;70400;50.934;11.590;2023-06-26T02:18:42;99984.47;;;17.84;71.43
80945;BME280;70400;50.934;11.590;2023-06-26T02:19:33;99986.88;;;17.79;71.39
80945;BME280;70400;50.934;11.590;2023-06-26T02:20:24;99990.38;;;17.79;71.94
80945;BME280;70400;50.934;11.590;2023-06-26T02:21:15;99991.03;;;17.82;71.26
80945;BME280;70400;50.934;11.590;2023-06-26T02:22:06;99990.53;;;17.78;70.68
80945;BME280;70400;50.934;11.590;2023-06-26T02:22:57;99993.59;;;17.75;71.74
80945;BME280;70400;50.934;11.590;2023-06-26T02:23:48;99988.56;;;17.65;72.21
80945;BME280;70400;50.934;11.590;2023-06-26T02:24:38;99992.50;;;17.69;72.00
80945;BME280;70400;50.934;11.590;2023-06-26T02:25:29;99988.25;;;17.75;71.07
80945;BME280;70400;50.934;11.590;2023-06-26T02:26:20;99991.13;;;17.73;71.24
80945;BME280;70400;50.934;11.590;2023-06-26T02:27:11;99990.09;;;17.74;71.90
80945;BME280;70400;50.934;11.590;2023-06-26T02:28:04;99994.16;;;17.70;72.02
80945;BME280;70400;50.934;11.590;2023-06-26T02:28:56;99991.69;;;17.69;72.29
80945;BME280;70400;50.934;11.590;2023-06-26T02:29:46;99993.53;;;17.68;71.56
80945;BME280;70400;50.934;11.590;2023-06-26T02:30:37;99994.34;;;17.69;71.58
80945;BME280;70400;50.934;11.590;2023-06-26T02:31:28;99992.25;;;17.64;71.06
80945;BME280;70400;50.934;11.590;2023-06-26T02:32:19;99994.75;;;17.66;71.82
80945;BME280;70400;50.934;11.590;2023-06-26T02:33:12;99986.28;;;17.62;72.43
80945;BME280;70400;50.934;11.590;2023-06-26T02:34:04;99989.31;;;17.59;72.25
80945;BME280;70400;50.934;11.590;2023-06-26T02:34:56;99987.72;;;17.65;72.09
80945;BME280;70400;50.934;11.590;2023-06-26T02:35:47;99985.19;;;17.56;72.74
80945;BME280;70400;50.934;11.590;2023-06-26T02:36:38;99988.69;;;17.57;71.20
80945;BME280;70400;50.934;11.590;2023-06-26T02:37:30;99988.88;;;17.55;72.31
80945;BME280;70400;50.934;11.590;2023-06-26T02:38:21;99986.22;;;17.55;72.57
80945;BME280;70400;50.934;11.590;2023-06-26T02:39:12;99993.44;;;17.62;72.47
80945;BME280;70400;50.934;11.590;2023-06-26T02:40:04;99985.56;;;17.53;71.71
80945;BME280;70400;50.934;11.590;2023-06-26T02:40:56;99988.03;;;17.55;72.34
80945;BME280;70400;50.934;11.590;2023-06-26T02:41:48;99994.94;;;17.49;72.89
80945;BME280;70400;50.934;11.590;2023-06-26T02:42:41;99998.91;;;17.53;72.50
80945;BME280;70400;50.934;11.590;2023-06-26T02:43:34;99982.91;;;17.53;72.74
80945;BME280;70400;50.934;11.590;2023-06-26T02:44:25;99989.88;;;17.54;72.35
80945;BME280;70400;50.934;11.590;2023-06-26T02:45:17;99993.06;;;17.43;73.35
80945;BME280;70400;50.934;11.590;2023-06-26T02:46:08;99982.25;;;17.51;72.50
80945;BME280;70400;50.934;11.590;2023-06-26T02:46:58;99989.22;;;17.52;72.85
80945;BME280;70400;50.934;11.590;2023-06-26T02:47:49;99986.31;;;17.47;72.76
80945;BME280;70400;50.934;11.590;2023-06-26T02:48:40;99985.66;;;17.45;72.13
80945;BME280;70400;50.934;11.590;2023-06-26T02:49:31;99984.66;;;17.46;73.39
80945;BME280;70400;50.934;11.590;2023-06-26T02:50:22;99979.34;;;17.46;72.36
80945;BME280;70400;50.934;11.590;2023-06-26T02:51:28;99979.81;;;17.35;73.31
80945;BME280;70400;50.934;11.590;2023-06-26T02:52:21;99983.94;;;17.38;72.58
80945;BME280;70400;50.934;11.590;2023-06-26T02:53:12;99976.69;;;17.31;74.06
80945;BME280;70400;50.934;11.590;2023-06-26T02:54:07;99974.22;;;17.30;73.50
80945;BME280;70400;50.934;11.590;2023-06-26T02:54:57;99978.16;;;17.34;73.46
80945;BME280;70400;50.934;11.590;2023-06-26T02:55:48;99977.53;;;17.32;72.79
80945;BME280;70400;50.934;11.590;2023-06-26T02:56:41;99979.47;;;17.23;74.18
80945;BME280;70400;50.934;11.590;2023-06-26T02:57:42;99980.31;;;17.24;73.79
80945;BME280;70400;50.934;11.590;2023-06-26T02:58:33;99978.59;;;17.38;72.73
80945;BME280;70400;50.934;11.590;2023-06-26T02:59:25;99974.03;;;17.31;72.94
80945;BME280;70400;50.934;11.590;2023-06-26T03:00:18;99981.94;;;17.25;73.48
80945;BME280;70400;50.934;11.590;2023-06-26T03:01:14;99979.75;;;17.28;73.18
80945;BME280;70400;50.934;11.590;2023-06-26T03:02:08;99980.31;;;17.24;73.80
80945;BME280;70400;50.934;11.590;2023-06-26T03:03:05;99974.84;;;17.32;72.06
80945;BME280;70400;50.934;11.590;2023-06-26T03:03:56;99984.06;;;17.29;71.86
80945;BME280;70400;50.934;11.590;2023-06-26T03:04:48;99978.16;;;17.34;73.25
80945;BME280;70400;50.934;11.590;2023-06-26T03:05:40;99980.44;;;17.37;72.86
80945;BME280;70400;50.934;11.590;2023-06-26T03:06:31;99974.69;;;17.33;72.85
80945;BME280;70400;50.934;11.590;2023-06-26T03:07:22;99979.53;;;17.30;73.14
80945;BME280;70400;50.934;11.590;2023-06-26T03:08:13;99977.34;;;17.33;72.96
80945;BME280;70400;50.934;11.590;2023-06-26T03:09:04;99976.88;;;17.30;73.61
80945;BME280;70400;50.934;11.590;2023-06-26T03:09:55;99973.38;;;17.29;73.07
80945;BME280;70400;50.934;11.590;2023-06-26T03:10:46;99973.66;;;17.34;72.41
80945;BME280;70400;50.934;11.590;2023-06-26T03:11:38;99975.31;;;17.35;73.56
80945;BME280;70400;50.934;11.590;2023-06-26T03:12:29;99977.22;;;17.42;72.87
80945;BME280;70400;50.934;11.590;2023-06-26T03:13:20;99985.88;;;17.44;72.31
80945;BME280;70400;50.934;11.590;2023-06-26T03:14:11;99985.31;;;17.48;71.92
80945;BME280;70400;50.934;11.590;2023-06-26T03:15:05;99976.28;;;17.49;72.46
80945;BME280;70400;50.934;11.590;2023-06-26T03:15:57;99971.34;;;17.46;72.77
80945;BME280;70400;50.934;11.590;2023-06-26T03:16:48;99979.16;;;17.48;71.96
80945;BME280;70400;50.934;11.590;2023-06-26T03:17:39;99974.19;;;17.45;72.59
80945;BME280;70400;50.934;11.590;2023-06-26T03:18:36;99978.88;;;17.43;72.48
80945;BME280;70400;50.934;11.590;2023-06-26T03:19:26;99971.06;;;17.41;71.46
80945;BME280;70400;50.934;11.590;2023-06-26T03:20:36;99974.28;;;17.36;72.90
80945;BME280;70400;50.934;11.590;2023-06-26T03:21:27;99966.56;;;17.42;72.74
80945;BME280;70400;50.934;11.590;2023-06-26T03:22:18;99976.03;;;17.44;72.88
80945;BME280;70400;50.934;11.590;2023-06-26T03:23:10;99970.50;;;17.46;72.35
80945;BME280;70400;50.934;11.590;2023-06-26T03:24:01;99969.38;;;17.55;71.85
80945;BME280;70400;50.934;11.590;2023-06-26T03:24:52;99965.06;;;17.54;72.21
80945;BME280;70400;50.934;11.590;2023-06-26T03:25:43;99967.09;;;17.52;71.73
80945;BME280;70400;50.934;11.590;2023-06-26T03:26:57;99970.78;;;17.51;72.54
80945;BME280;70400;50.934;11.590;2023-06-26T03:27:48;99972.97;;;17.47;72.26
80945;BME280;70400;50.934;11.590;2023-06-26T03:28:41;99969.97;;;17.50;72.62
80945;BME280;70400;50.934;11.590;2023-06-26T03:29:33;99966.09;;;17.53;72.25
80945;BME280;70400;50.934;11.590;2023-06-26T03:30:23;99971.06;;;17.41;72.37
80945;BME280;70400;50.934;11.590;2023-06-26T03:31:15;99973.19;;;17.46;72.43
80945;BME280;70400;50.934;11.590;2023-06-26T03:32:06;99974.72;;;17.40;73.05
80945;BME280;70400;50.934;11.590;2023-06-26T03:32:58;99978.59;;;17.38;73.00
80945;BME280;70400;50.934;11.590;2023-06-26T03:33:50;99972.16;;;17.47;72.13
80945;BME280;70400;50.934;11.590;2023-06-26T03:34:41;99975.28;;;17.50;72.69
80945;BME280;70400;50.934;11.590;2023-06-26T03:35:33;99966.13;;;17.38;72.94
80945;BME280;70400;50.934;11.590;2023-06-26T03:36:24;99966.75;;;17.40;73.08
80945;BME280;70400;50.934;11.590;2023-06-26T03:37:15;99970.06;;;17.42;72.84
80945;BME280;70400;50.934;11.590;2023-06-26T03:38:06;99977.13;;;17.35;73.06
80945;BME280;70400;50.934;11.590;2023-06-26T03:38:56;99972.53;;;17.44;73.19
80945;BME280;70400;50.934;11.590;2023-06-26T03:39:48;99971.72;;;17.43;73.06
80945;BME280;70400;50.934;11.590;2023-06-26T03:40:39;99968.53;;;17.54;72.73
80945;BME280;70400;50.934;11.590;2023-06-26T03:41:30;99962.50;;;17.82;71.56
80945;BME280;70400;50.934;11.590;2023-06-26T03:42:21;99967.34;;;18.21;69.87
80945;BME280;70400;50.934;11.590;2023-06-26T03:43:13;99966.66;;;18.69;68.06
80945;BME280;70400;50.934;11.590;2023-06-26T03:44:22;99971.69;;;19.27;66.25
80945;BME280;70400;50.934;11.590;2023-06-26T03:45:13;99968.34;;;19.73;64.61
80945;BME280;70400;50.934;11.590;2023-06-26T03:46:06;99959.31;;;20.01;63.23
80945;BME280;70400;50.934;11.590;2023-06-26T03:46:57;99956.84;;;20.26;62.43
80945;BME280;70400;50.934;11.590;2023-06-26T03:47:48;99961.56;;;20.37;61.91
80945;BME280;70400;50.934;11.590;2023-06-26T03:48:40;99957.22;;;20.63;60.97
80945;BME280;70400;50.934;11.590;2023-06-26T03:49:30;99962.34;;;20.84;60.29
80945;BME280;70400;50.934;11.590;2023-06-26T03:50:22;99954.25;;;20.97;60.09
80945;BME280;70400;50.934;11.590;2023-06-26T03:51:14;99952.31;;;21.18;58.58
80945;BME280;70400;50.934;11.590;2023-06-26T03:52:05;99951.91;;;21.14;58.70
80945;BME280;70400;50.934;11.590;2023-06-26T03:52:56;99955.16;;;21.23;58.20
80945;BME280;70400;50.934;11.590;2023-06-26T03:53:47;99955.47;;;21.53;57.53
80945;BME280;70400;50.934;11.590;2023-06-26T03:54:38;99946.44;;;21.41;57.81
80945;BME280;70400;50.934;11.590;2023-06-26T03:55:29;99953.97;;;21.57;56.58
80945;BME280;70400;50.934;11.590;2023-06-26T03:56:19;99950.13;;;21.46;57.98
80945;BME280;70400;50.934;11.590;2023-06-26T03:57:14;99954.09;;;21.76;56.85
80945;BME280;70400;50.934;11.590;2023-06-26T03:58:05;99952.56;;;22.11;55.81
80945;BME280;70400;50.934;11.590;2023-06-26T03:59:49;99948.19;;;22.17;55.45
80945;BME280;70400;50.934;11.590;2023-06-26T04:00:40;99947.22;;;22.55;54.59
80945;BME280;70400;50.934;11.590;2023-06-26T04:01:31;99943.56;;;22.68;54.08
80945;BME280;70400;50.934;11.590;2023-06-26T04:02:22;99943.63;;;22.61;53.82
80945;BME280;70400;50.934;11.590;2023-06-26T04:03:14;99948.41;;;22.59;53.73
80945;BME280;70400;50.934;11.590;2023-06-26T04:04:05;99938.59;;;22.90;53.40
80945;BME280;70400;50.934;11.590;2023-06-26T04:04:56;99950.63;;;23.06;52.55
80945;BME280;70400;50.934;11.590;2023-06-26T04:05:47;99948.09;;;23.23;52.67
80945;BME280;70400;50.934;11.590;2023-06-26T04:06:40;99944.56;;;23.10;52.63
80945;BME280;70400;50.934;11.590;2023-06-26T04:07:31;99949.84;;;23.17;52.49
80945;BME280;70400;50.934;11.590;2023-06-26T04:08:24;99948.84;;;23.30;51.58
80945;BME280;70400;50.934;11.590;2023-06-26T04:09:19;99944.84;;;23.21;52.01
80945;BME280;70400;50.934;11.590;2023-06-26T04:10:10;99949.84;;;23.17;52.38
80945;BME280;70400;50.934;11.590;2023-06-26T04:11:01;99944.13;;;23.74;50.71
80945;BME280;70400;50.934;11.590;2023-06-26T04:11:52;99953.97;;;23.80;50.57
80945;BME280;70400;50.934;11.590;2023-06-26T04:12:43;99948.59;;;23.80;50.20
80945;BME280;70400;50.934;11.590;2023-06-26T04:13:34;99949.56;;;24.21;48.53
80945;BME280;70400;50.934;11.590;2023-06-26T04:14:24;99946.06;;;23.97;49.99
80945;BME280;70400;50.934;11.590;2023-06-26T04:15:15;99947.44;;;23.88;49.71
80945;BME280;70400;50.934;11.590;2023-06-26T04:16:06;99952.47;;;23.96;49.91
80945;BME280;70400;50.934;11.590;2023-06-26T04:16:58;99951.56;;;24.02;49.93
80945;BME280;70400;50.934;11.590;2023-06-26T04:17:50;99956.13;;;24.37;48.75
80945;BME280;70400;50.934;11.590;2023-06-26T04:18:41;99946.53;;;24.64;47.94
80945;BME280;70400;50.934;11.590;2023-06-26T04:19:32;99950.28;;;24.63;48.03
80945;BME280;70400;50.934;11.590;2023-06-26T04:20:25;99950.16;;;24.35;48.34
80945;BME280;70400;50.934;11.590;2023-06-26T04:21:16;99952.16;;;24.39;48.10
80945;BME280;70400;50.934;11.590;2023-06-26T04:22:07;99950.88;;;24.54;48.09
80945;BME280;70400;50.934;11.590;2023-06-26T04:22:58;99946.34;;;24.95;47.17
80945;BME280;70400;50.934;11.590;2023-06-26T04:23:49;99944.88;;;24.75;47.27
80945;BME280;70400;50.934;11.590;2023-06-26T04:24:39;99949.50;;;25.03;46.60
80945;BME280;70400;50.934;11.590;2023-06-26T04:25:30;99945.56;;;24.82;47.75
80945;BME280;70400;50.934;11.590;2023-06-26T04:26:21;99941.63;;;24.73;47.27
80945;BME280;70400;50.934;11.590;2023-06-26T04:27:12;99938.66;;;24.75;47.58
80945;BME280;70400;50.934;11.590;2023-06-26T04:28:04;99936.16;;;25.37;45.69
80945;BME280;70400;50.934;11.590;2023-06-26T04:28:55;99941.19;;;25.33;45.81
80945;BME280;70400;50.934;11.590;2023-06-26T04:29:46;99943.06;;;25.04;46.20
80945;BME280;70400;50.934;11.590;2023-06-26T04:30:36;99940.69;;;25.20;46.22
80945;BME280;70400;50.934;11.590;2023-06-26T04:31:29;99941.44;;;25.61;44.97
80945;BME280;70400;50.934;11.590;2023-06-26T04:32:20;99933.66;;;25.47;45.37
80945;BME280;70400;50.934;11.590;2023-06-26T04:33:11;99937.56;;;25.85;44.69
80945;BME280;70400;50.934;11.590;2023-06-26T04:34:02;99943.28;;;25.89;44.38
80945;BME280;70400;50.934;11.590;2023-06-26T04:34:53;99935.38;;;26.55;43.31
80945;BME280;70400;50.934;11.590;2023-06-26T04:35:44;99939.59;;;26.12;43.77
80945;BME280;70400;50.934;11.590;2023-06-26T04:36:40;99931.34;;;26.18;43.88